YRQ weather

Trois-Rivières Airport
Trois-Rivières, Quebec, Canada

Public forecast

Using degrees Celsius for public forecast. Weather courtesy of forecast.io.

METAR (pilot weather report)

Retrieved 2019/05/21 08:00 UTC (50 minutes ago):

CYRQ 210800Z AUTO 27003KT 240V300 9SM SCT029 OVC065 09/05 A2967 RMK SLP051

TAF (pilot weather forecast)

Retrieved 2019/05/21 08:00 UTC (50 minutes ago):

TAF CYRQ 210738Z 2108/2120 28005KT P6SM BKN030 OVC100 TEMPO 2108/2109 P6SM -SHRA BKN020 OVC100 FM210900 27008KT P6SM SCT030 TEMPO 2109/2112 BKN030 FM211200 27010G20KT P6SM BKN030 OVC080 TEMPO 2112/2118 P6SM -SHRA BECMG 2112/2114 29018G28KT FM211800 32018G32KT P6SM BKN040 OVC080 RMK FCST BASED ON AUTO OBS. NXT FCST BY 211400Z